Time;durP1;ratioP1;P1;durP2;ratioP2;P2;SDS_P1;SDS_P2;PMS_P1;PMS_P2;Temp;Humidity;BMP_temperature;BMP_pressure;BME280_temperature;BME280_humidity;BME280_pressure;Samples;Min_cycle;Max_cycle;Signal;HPM_P1;HPM_P2
2023/03/09 00:01:19;;;;;;;13.60;7.63;;;3.50;99.50;;;;;;5063445;28;20035;-64
2023/03/09 00:03:45;;;;;;;13.63;6.88;;;3.40;99.40;;;;;;5062904;28;20151;-66
2023/03/09 00:06:11;;;;;;;8.77;5.85;;;3.40;99.70;;;;;;5073070;28;20062;-65
2023/03/09 00:08:36;;;;;;;11.85;6.38;;;3.50;99.70;;;;;;5077205;28;20511;-65
2023/03/09 00:11:04;;;;;;;10.98;6.38;;;3.40;99.80;;;;;;5080559;28;20051;-65
2023/03/09 00:13:30;;;;;;;10.27;6.22;;;3.50;99.70;;;;;;5075941;28;20063;-65
2023/03/09 00:15:56;;;;;;;11.50;6.80;;;3.50;99.50;;;;;;5072143;28;20862;-65
2023/03/09 00:18:22;;;;;;;10.35;6.38;;;3.60;99.50;;;;;;5072817;28;20028;-65
2023/03/09 00:20:48;;;;;;;10.27;5.80;;;3.60;99.30;;;;;;5077001;28;20043;-64
2023/03/09 00:23:18;;;;;;;9.98;6.35;;;3.70;99.30;;;;;;5073136;28;20035;-64
2023/03/09 00:25:44;;;;;;;11.63;6.28;;;3.60;98.90;;;;;;5075582;28;20111;-65
2023/03/09 00:28:10;;;;;;;9.95;5.82;;;3.60;98.80;;;;;;5077520;28;20107;-65
2023/03/09 00:30:37;;;;;;;11.93;6.43;;;3.50;99.00;;;;;;5068093;28;20788;-65
2023/03/09 00:33:03;;;;;;;12.20;6.90;;;3.60;99.00;;;;;;5083200;28;20047;-65
2023/03/09 00:35:29;;;;;;;11.98;6.65;;;3.60;98.80;;;;;;5074374;28;20994;-65
2023/03/09 00:37:55;;;;;;;10.30;5.80;;;3.50;99.00;;;;;;5073638;28;20040;-65
2023/03/09 00:40:21;;;;;;;9.25;5.57;;;3.50;99.00;;;;;;5077861;28;20035;-66
2023/03/09 00:42:47;;;;;;;11.43;6.47;;;3.50;99.10;;;;;;5078734;28;20020;-65
2023/03/09 00:45:14;;;;;;;11.75;6.20;;;3.50;99.10;;;;;;5070248;28;20063;-65
2023/03/09 00:47:40;;;;;;;10.45;6.20;;;3.50;99.20;;;;;;5086344;28;20118;-64
2023/03/09 00:50:07;;;;;;;11.98;6.53;;;3.50;99.30;;;;;;5077392;28;20028;-65
2023/03/09 00:52:33;;;;;;;10.75;6.20;;;3.50;98.90;;;;;;5078423;28;20024;-66
2023/03/09 00:54:59;;;;;;;12.02;6.40;;;3.60;98.90;;;;;;5081962;28;20039;-66
2023/03/09 00:57:25;;;;;;;10.57;7.10;;;3.60;99.20;;;;;;5086545;28;20533;-66
2023/03/09 00:59:51;;;;;;;10.48;6.18;;;3.50;99.10;;;;;;5073237;28;20039;-65
2023/03/09 01:02:22;;;;;;;11.13;6.45;;;3.50;99.20;;;;;;5076564;28;20031;-65
2023/03/09 01:04:48;;;;;;;10.60;6.47;;;3.40;99.00;;;;;;5071196;28;20035;-65
2023/03/09 01:07:14;;;;;;;12.18;6.82;;;3.50;99.10;;;;;;5074843;28;20175;-65
2023/03/09 01:09:40;;;;;;;12.45;6.55;;;3.30;99.50;;;;;;5070416;28;20035;-65
2023/03/09 01:12:07;;;;;;;10.35;5.95;;;3.40;99.60;;;;;;5079812;28;20024;-66
2023/03/09 01:14:34;;;;;;;12.27;6.75;;;3.40;99.60;;;;;;5076833;28;20032;-66
2023/03/09 01:16:59;;;;;;;13.82;7.28;;;3.30;99.70;;;;;;5085105;28;20032;-65
2023/03/09 01:19:26;;;;;;;13.75;7.32;;;3.30;99.70;;;;;;5081308;28;20030;-65
2023/03/09 01:21:52;;;;;;;16.55;7.47;;;3.30;99.80;;;;;;5081159;28;20050;-66
2023/03/09 01:24:18;;;;;;;12.57;7.18;;;3.20;99.90;;;;;;5074022;28;20055;-65
2023/03/09 01:26:43;;;;;;;13.18;6.97;;;3.20;99.90;;;;;;5081908;28;20053;-65
2023/03/09 01:29:09;;;;;;;13.13;7.10;;;3.20;99.90;;;;;;5076205;28;20024;-66
2023/03/09 01:31:35;;;;;;;13.52;7.28;;;3.20;99.90;;;;;;5082366;28;20153;-65
2023/03/09 01:34:01;;;;;;;14.30;7.35;;;3.30;99.90;;;;;;5077577;28;20024;-65
2023/03/09 01:36:26;;;;;;;11.98;7.25;;;3.30;99.90;;;;;;5082469;28;20031;-65
2023/03/09 01:38:52;;;;;;;13.93;6.95;;;3.20;99.90;;;;;;5075427;28;20037;-65
2023/03/09 01:41:20;;;;;;;13.38;7.38;;;3.20;99.90;;;;;;5084514;28;20113;-65
2023/03/09 01:43:47;;;;;;;15.50;7.72;;;3.30;99.90;;;;;;5088781;28;20046;-66
2023/03/09 01:46:25;;;;;;;16.60;8.40;;;3.30;99.90;;;;;;5080656;28;20657;-65
2023/03/09 01:49:15;;;;;;;15.82;8.07;;;3.30;99.90;;;;;;5068212;28;20487;-65
2023/03/09 01:51:53;;;;;;;16.42;8.32;;;3.20;99.90;;;;;;5078158;28;20093;-65
2023/03/09 01:54:28;;;;;;;16.45;7.95;;;3.20;99.90;;;;;;5083545;28;20028;-65
2023/03/09 01:57:00;;;;;;;13.10;7.43;;;3.20;99.90;;;;;;5071536;28;20129;-65
2023/03/09 01:59:30;;;;;;;15.05;7.65;;;3.20;99.90;;;;;;5077148;28;20126;-65
2023/03/09 02:01:56;;;;;;;15.55;7.30;;;3.30;99.90;;;;;;5078598;28;20872;-65
2023/03/09 02:04:30;;;;;;;14.48;7.72;;;3.40;99.90;;;;;;5080159;28;20034;-65
2023/03/09 02:06:56;;;;;;;13.75;7.07;;;3.40;99.90;;;;;;5079424;28;20105;-65
2023/03/09 02:09:38;;;;;;;14.15;7.00;;;3.40;99.90;;;;;;5083674;28;20036;-65
2023/03/09 02:12:07;;;;;;;15.45;8.45;;;3.40;99.90;;;;;;5077543;28;20109;-65
2023/03/09 02:14:33;;;;;;;16.90;8.23;;;3.50;99.90;;;;;;5085164;28;20028;-65
2023/03/09 02:16:59;;;;;;;18.90;8.52;;;3.40;99.90;;;;;;5079287;28;20039;-65
2023/03/09 02:19:51;;;;;;;16.80;8.18;;;3.50;99.90;;;;;;5095624;28;20030;-65
2023/03/09 02:22:18;;;;;;;18.92;9.20;;;3.50;99.90;;;;;;5047832;28;20032;-65
2023/03/09 02:24:56;;;;;;;18.08;8.52;;;3.50;99.90;;;;;;5086541;28;20756;-65
2023/03/09 02:27:26;;;;;;;15.98;8.98;;;3.40;99.90;;;;;;5081505;28;20043;-66
2023/03/09 02:29:55;;;;;;;16.77;8.88;;;3.30;99.90;;;;;;5081912;28;20032;-65
2023/03/09 02:32:21;;;;;;;21.60;10.23;;;3.30;99.90;;;;;;5085511;28;20918;-65
2023/03/09 02:34:47;;;;;;;22.58;11.27;;;3.30;99.90;;;;;;5074133;28;20035;-65
2023/03/09 02:37:24;;;;;;;20.25;9.90;;;3.40;99.90;;;;;;5076633;28;20023;-65
2023/03/09 02:39:55;;;;;;;21.05;10.00;;;3.40;99.90;;;;;;5082695;28;20031;-65
2023/03/09 02:42:21;;;;;;;18.52;9.80;;;3.40;99.90;;;;;;5068281;28;20110;-65
2023/03/09 02:44:48;;;;;;;22.98;11.48;;;3.40;99.90;;;;;;5081975;28;20582;-66
2023/03/09 02:47:18;;;;;;;23.25;11.55;;;3.40;99.90;;;;;;5078548;28;20031;-65
2023/03/09 02:49:44;;;;;;;21.67;10.48;;;3.40;99.90;;;;;;5078492;28;20047;-65
2023/03/09 02:52:10;;;;;;;21.90;10.98;;;3.40;99.90;;;;;;5079167;28;20118;-66
2023/03/09 02:54:36;;;;;;;23.20;11.63;;;3.40;99.90;;;;;;5087844;28;20051;-65
2023/03/09 02:57:02;;;;;;;26.23;12.88;;;3.50;99.90;;;;;;5074746;28;20139;-65
2023/03/09 02:59:28;;;;;;;23.40;11.60;;;3.40;99.90;;;;;;5077818;28;20039;-65
2023/03/09 03:01:54;;;;;;;25.60;12.32;;;3.30;99.90;;;;;;5067630;28;20458;-66
2023/03/09 03:04:21;;;;;;;26.60;11.88;;;3.30;99.90;;;;;;5083847;28;20042;-65
2023/03/09 03:06:47;;;;;;;23.02;11.73;;;3.20;99.90;;;;;;5076330;28;20719;-65
2023/03/09 03:09:14;;;;;;;25.00;13.10;;;3.30;99.90;;;;;;5080298;28;20036;-65
2023/03/09 03:11:40;;;;;;;24.00;12.02;;;3.30;99.90;;;;;;5064666;28;20176;-65
2023/03/09 03:14:06;;;;;;;25.50;11.77;;;3.30;99.90;;;;;;5074926;28;20044;-65
2023/03/09 03:16:35;;;;;;;27.92;13.00;;;3.20;99.90;;;;;;5075708;28;20028;-65
2023/03/09 03:19:02;;;;;;;26.58;11.88;;;3.20;99.90;;;;;;5079939;28;20103;-65
2023/03/09 03:21:31;;;;;;;22.00;11.73;;;3.20;99.90;;;;;;5077306;28;20040;-65
2023/03/09 03:23:57;;;;;;;24.73;12.57;;;3.20;99.90;;;;;;5075308;28;20039;-65
2023/03/09 03:26:26;;;;;;;27.90;12.70;;;3.10;99.90;;;;;;5075243;28;20067;-66
2023/03/09 03:28:54;;;;;;;28.05;12.45;;;3.10;99.90;;;;;;5076359;28;20068;-65
2023/03/09 03:31:25;;;;;;;27.10;13.50;;;3.10;99.90;;;;;;5076406;28;20047;-66
2023/03/09 03:33:53;;;;;;;26.60;12.13;;;3.10;99.90;;;;;;5075680;28;20080;-65
2023/03/09 03:36:20;;;;;;;24.77;12.77;;;3.20;99.90;;;;;;5071960;28;20078;-65
2023/03/09 03:38:47;;;;;;;26.00;12.20;;;3.20;99.90;;;;;;5078351;28;20603;-65
2023/03/09 03:41:13;;;;;;;24.90;12.10;;;3.30;99.90;;;;;;5076267;28;20169;-65
2023/03/09 03:43:41;;;;;;;29.50;13.52;;;3.20;99.90;;;;;;5077916;28;20035;-65
2023/03/09 03:46:07;;;;;;;29.80;14.23;;;3.20;99.90;;;;;;5079567;28;20028;-65
2023/03/09 03:48:34;;;;;;;31.13;14.55;;;3.10;99.90;;;;;;5081083;28;20416;-65
2023/03/09 03:51:00;;;;;;;28.63;13.27;;;3.00;99.90;;;;;;5080944;28;20783;-65
2023/03/09 03:53:26;;;;;;;26.65;11.50;;;2.90;99.90;;;;;;5056982;28;20028;-65
2023/03/09 03:55:54;;;;;;;26.92;13.93;;;2.90;99.90;;;;;;5072656;28;20024;-65
2023/03/09 03:58:19;;;;;;;29.80;13.07;;;2.90;99.90;;;;;;5076313;28;20038;-65
2023/03/09 04:00:46;;;;;;;30.08;13.23;;;2.90;99.90;;;;;;5068382;28;20111;-65
2023/03/09 04:03:14;;;;;;;23.83;13.10;;;2.80;99.90;;;;;;5085929;28;20122;-65
2023/03/09 04:05:43;;;;;;;28.85;13.10;;;2.90;99.90;;;;;;5072588;28;20032;-65
2023/03/09 04:08:10;;;;;;;28.73;12.75;;;2.90;99.90;;;;;;5078847;28;20028;-65
2023/03/09 04:10:40;;;;;;;24.10;11.60;;;2.90;99.90;;;;;;5078067;28;20034;-64
2023/03/09 04:13:08;;;;;;;26.48;12.52;;;2.90;99.90;;;;;;5081575;28;20096;-65
2023/03/09 04:15:35;;;;;;;27.27;13.18;;;2.90;99.90;;;;;;5084945;28;20042;-65
2023/03/09 04:18:02;;;;;;;25.55;12.30;;;2.90;99.90;;;;;;5081865;28;20049;-65
2023/03/09 04:20:30;;;;;;;26.92;13.05;;;3.00;99.90;;;;;;5088005;28;20087;-65
2023/03/09 04:22:56;;;;;;;25.33;12.18;;;3.00;99.90;;;;;;5079614;28;20801;-65
2023/03/09 04:25:24;;;;;;;26.48;11.85;;;3.00;99.90;;;;;;5084637;28;20034;-65
2023/03/09 04:27:51;;;;;;;24.98;13.07;;;3.00;99.90;;;;;;5084244;28;20704;-65
2023/03/09 04:30:24;;;;;;;23.63;10.93;;;3.10;99.90;;;;;;5082386;28;20373;-65
2023/03/09 04:32:54;;;;;;;24.30;12.32;;;3.10;99.90;;;;;;5078417;28;20024;-65
2023/03/09 04:35:20;;;;;;;24.85;11.30;;;3.10;99.90;;;;;;5083235;28;20024;-65
2023/03/09 04:37:47;;;;;;;23.23;11.35;;;3.10;99.90;;;;;;5080136;28;20059;-65
2023/03/09 04:40:15;;;;;;;25.35;11.55;;;3.20;99.90;;;;;;5084947;28;20063;-65
2023/03/09 04:42:41;;;;;;;21.50;11.40;;;3.00;99.90;;;;;;5085718;28;20131;-65
2023/03/09 04:45:08;;;;;;;23.77;11.52;;;3.10;99.90;;;;;;5083321;28;20496;-65
2023/03/09 04:47:35;;;;;;;23.67;11.23;;;3.10;99.90;;;;;;5086313;28;20039;-64
2023/03/09 04:50:01;;;;;;;22.17;10.68;;;3.20;99.90;;;;;;5077199;28;20034;-65
2023/03/09 04:52:32;;;;;;;25.02;11.23;;;3.20;99.90;;;;;;5085290;28;20077;-64
2023/03/09 04:54:57;;;;;;;24.48;10.88;;;3.20;99.90;;;;;;5085060;28;20055;-65
2023/03/09 04:57:23;;;;;;;20.60;10.93;;;3.30;99.90;;;;;;5084436;28;20032;-65
2023/03/09 04:59:49;;;;;;;24.50;11.15;;;3.30;99.90;;;;;;5083521;28;20030;-65
2023/03/09 05:02:15;;;;;;;21.77;10.52;;;3.30;99.90;;;;;;5083368;28;20028;-64
2023/03/09 05:04:44;;;;;;;21.23;10.55;;;3.20;99.90;;;;;;5084464;28;20032;-65
2023/03/09 05:07:10;;;;;;;26.13;11.15;;;3.20;99.90;;;;;;5083193;28;20035;-65
2023/03/09 05:09:36;;;;;;;23.02;11.13;;;3.30;99.90;;;;;;5078455;28;20100;-65
2023/03/09 05:12:04;;;;;;;20.17;10.23;;;3.30;99.90;;;;;;5082618;28;20103;-64
2023/03/09 05:14:32;;;;;;;21.40;10.35;;;3.20;99.90;;;;;;5078565;28;20123;-65
2023/03/09 05:16:59;;;;;;;22.05;10.55;;;3.00;99.90;;;;;;5082571;28;20024;-65
2023/03/09 05:19:25;;;;;;;24.10;11.10;;;3.00;99.90;;;;;;5077481;28;20068;-65
2023/03/09 05:21:55;;;;;;;20.85;10.93;;;3.00;99.90;;;;;;5074968;28;20040;-65
2023/03/09 05:24:21;;;;;;;19.58;9.63;;;3.00;99.90;;;;;;5079544;28;20024;-65
2023/03/09 05:26:46;;;;;;;17.40;9.07;;;3.00;99.90;;;;;;5080118;28;20067;-65
2023/03/09 05:29:15;;;;;;;22.05;10.35;;;3.00;99.90;;;;;;5071932;28;20042;-65
2023/03/09 05:31:41;;;;;;;20.52;9.98;;;2.90;99.90;;;;;;5078038;28;20397;-65
2023/03/09 05:34:08;;;;;;;23.90;10.02;;;2.90;99.90;;;;;;5076506;28;20063;-64
2023/03/09 05:36:33;;;;;;;20.77;10.75;;;2.90;99.90;;;;;;5076225;28;20827;-64
2023/03/09 05:39:06;;;;;;;18.90;9.98;;;2.90;99.90;;;;;;5073647;28;20189;-65
2023/03/09 05:41:32;;;;;;;17.98;9.98;;;2.90;99.90;;;;;;5081855;28;20557;-65
2023/03/09 05:44:09;;;;;;;20.90;10.02;;;2.90;99.90;;;;;;5073198;28;20496;-64
2023/03/09 05:46:35;;;;;;;22.80;10.18;;;2.90;99.90;;;;;;5083769;28;20047;-64
2023/03/09 05:49:01;;;;;;;19.33;9.93;;;2.90;99.90;;;;;;5073887;28;20040;-64
2023/03/09 05:51:27;;;;;;;21.88;10.48;;;3.00;99.90;;;;;;5078672;28;20024;-64
2023/03/09 05:53:53;;;;;;;21.00;10.20;;;3.00;99.90;;;;;;5075539;28;20024;-64
2023/03/09 05:56:20;;;;;;;22.58;11.32;;;3.00;99.90;;;;;;5082004;28;20510;-64
2023/03/09 05:58:50;;;;;;;21.88;10.35;;;3.00;99.90;;;;;;5082589;28;20042;-65
2023/03/09 06:01:22;;;;;;;20.25;11.00;;;3.00;99.90;;;;;;5084032;28;20035;-67
2023/03/09 06:03:50;;;;;;;21.60;11.38;;;3.00;99.90;;;;;;5076282;28;20495;-64
2023/03/09 06:06:16;;;;;;;22.27;11.10;;;3.10;99.90;;;;;;5078779;28;20026;-64
2023/03/09 06:08:42;;;;;;;24.88;11.80;;;3.10;99.90;;;;;;5080749;28;20032;-64
2023/03/09 06:11:13;;;;;;;21.38;10.65;;;3.10;99.90;;;;;;5080089;28;20024;-64
2023/03/09 06:13:39;;;;;;;26.67;12.15;;;3.10;99.90;;;;;;5087995;28;20130;-64
2023/03/09 06:16:08;;;;;;;20.08;10.77;;;3.20;99.90;;;;;;5081209;28;20188;-64
2023/03/09 06:18:34;;;;;;;23.63;11.18;;;3.10;99.90;;;;;;5074354;28;20039;-64
2023/03/09 06:21:02;;;;;;;22.40;12.32;;;3.20;99.90;;;;;;5080597;28;20042;-64
2023/03/09 06:23:29;;;;;;;23.08;11.98;;;3.20;99.90;;;;;;5082553;28;20105;-64
2023/03/09 06:25:56;;;;;;;23.38;11.90;;;3.20;99.90;;;;;;5059467;28;20614;-64
2023/03/09 06:28:21;;;;;;;21.05;11.43;;;3.20;99.90;;;;;;5079449;28;20020;-64
2023/03/09 06:30:47;;;;;;;21.30;11.45;;;3.20;99.90;;;;;;5081241;28;20035;-64
2023/03/09 06:33:13;;;;;;;23.42;12.10;;;3.30;99.90;;;;;;5076759;28;20131;-64
2023/03/09 06:35:44;;;;;;;24.15;12.02;;;3.30;99.90;;;;;;5081251;28;20024;-64
2023/03/09 06:38:11;;;;;;;21.63;10.93;;;3.30;99.90;;;;;;5078147;28;20032;-64
2023/03/09 06:40:41;;;;;;;21.05;11.68;;;3.40;99.90;;;;;;5084729;28;20034;-64
2023/03/09 06:43:07;;;;;;;22.73;11.85;;;3.40;99.90;;;;;;5075195;28;20557;-64
2023/03/09 06:45:33;;;;;;;27.00;12.48;;;3.40;99.90;;;;;;5073911;28;20032;-64
2023/03/09 06:48:00;;;;;;;25.02;12.57;;;3.50;99.90;;;;;;5080179;28;20557;-64
2023/03/09 06:50:29;;;;;;;24.45;12.38;;;3.60;99.90;;;;;;5072111;28;20575;-64
2023/03/09 06:52:56;;;;;;;24.73;12.90;;;3.60;99.90;;;;;;5075254;28;20028;-64
2023/03/09 06:55:22;;;;;;;23.63;12.23;;;3.70;99.90;;;;;;5078314;28;20078;-64
2023/03/09 06:57:56;;;;;;;24.52;12.13;;;3.70;99.90;;;;;;5073451;28;20036;-64
2023/03/09 07:00:22;;;;;;;24.42;12.32;;;3.70;99.90;;;;;;5078876;28;20024;-64
2023/03/09 07:02:52;;;;;;;22.45;11.82;;;3.70;99.90;;;;;;5072495;28;20101;-64
2023/03/09 07:05:18;;;;;;;21.40;12.05;;;3.70;99.80;;;;;;5083675;28;20186;-64
2023/03/09 07:07:44;;;;;;;22.00;11.50;;;3.70;99.70;;;;;;5085713;28;20028;-64
2023/03/09 07:10:11;;;;;;;23.85;11.77;;;3.80;99.70;;;;;;5075702;28;20020;-64
2023/03/09 07:12:37;;;;;;;23.88;12.73;;;3.90;99.60;;;;;;5078051;28;20024;-64
2023/03/09 07:15:04;;;;;;;22.95;12.23;;;3.80;99.40;;;;;;5076969;28;20642;-64
2023/03/09 07:17:30;;;;;;;24.92;13.30;;;3.80;99.60;;;;;;5076663;28;20932;-64
2023/03/09 07:19:56;;;;;;;22.25;11.98;;;3.80;99.60;;;;;;5081799;28;20147;-64
2023/03/09 07:22:22;;;;;;;22.02;12.52;;;3.80;99.60;;;;;;5069058;28;20082;-64
2023/03/09 07:24:48;;;;;;;21.65;11.75;;;3.90;99.70;;;;;;5077095;28;20114;-64
2023/03/09 07:27:14;;;;;;;23.20;11.60;;;3.90;99.80;;;;;;5075151;28;20032;-64
2023/03/09 07:29:40;;;;;;;23.65;11.70;;;3.90;99.80;;;;;;5079555;28;20035;-64
2023/03/09 07:32:06;;;;;;;23.52;12.07;;;3.90;99.90;;;;;;5080387;28;20576;-64
2023/03/09 07:34:33;;;;;;;22.30;12.73;;;4.00;99.80;;;;;;5081081;28;20043;-64
2023/03/09 07:37:00;;;;;;;24.40;11.80;;;4.00;99.60;;;;;;5070257;28;20047;-64
2023/03/09 07:39:25;;;;;;;24.05;12.90;;;4.10;99.60;;;;;;5072088;28;20044;-64
2023/03/09 07:41:51;;;;;;;22.77;12.85;;;4.20;99.30;;;;;;5071885;28;20072;-64
2023/03/09 07:44:17;;;;;;;20.42;11.45;;;4.30;99.00;;;;;;5073765;28;20035;-64
2023/03/09 07:46:43;;;;;;;24.08;12.35;;;4.30;98.60;;;;;;5070797;28;20040;-65
2023/03/09 07:49:09;;;;;;;23.05;12.07;;;4.30;98.50;;;;;;5077514;28;20035;-64
2023/03/09 07:51:37;;;;;;;18.75;11.15;;;4.30;98.60;;;;;;5072014;28;20515;-64
2023/03/09 07:54:05;;;;;;;22.65;11.40;;;4.30;98.60;;;;;;5077448;28;20821;-64
2023/03/09 07:56:32;;;;;;;22.02;11.70;;;4.20;98.60;;;;;;5072861;28;20043;-65
2023/03/09 07:58:58;;;;;;;18.67;10.50;;;4.30;98.50;;;;;;5078067;28;20032;-64
2023/03/09 08:01:24;;;;;;;22.50;11.82;;;4.30;98.50;;;;;;5076471;28;20036;-64
2023/03/09 08:03:50;;;;;;;26.10;13.70;;;4.20;98.30;;;;;;5078893;28;20042;-64
2023/03/09 08:06:16;;;;;;;21.52;12.23;;;4.30;98.30;;;;;;5074190;28;20033;-64
2023/03/09 08:08:42;;;;;;;22.75;11.73;;;4.10;98.40;;;;;;5074554;28;20032;-64
2023/03/09 08:11:08;;;;;;;18.70;10.65;;;4.20;98.50;;;;;;5076237;28;20020;-65
2023/03/09 08:13:34;;;;;;;19.67;10.95;;;4.20;98.70;;;;;;5078655;28;20032;-64
2023/03/09 08:16:02;;;;;;;22.35;11.32;;;4.30;98.60;;;;;;5076297;28;20032;-64
2023/03/09 08:18:29;;;;;;;18.90;10.50;;;4.30;98.60;;;;;;5078320;28;20921;-65
2023/03/09 08:21:01;;;;;;;22.92;12.10;;;4.40;98.60;;;;;;5068739;28;20036;-64
2023/03/09 08:23:27;;;;;;;20.40;11.90;;;4.50;98.60;;;;;;5075964;28;20039;-64
2023/03/09 08:25:53;;;;;;;23.25;11.70;;;4.50;98.30;;;;;;5079363;28;20194;-65
2023/03/09 08:28:20;;;;;;;19.77;11.38;;;4.60;98.10;;;;;;5071298;28;20672;-64
2023/03/09 08:30:45;;;;;;;20.55;11.23;;;4.70;97.60;;;;;;5085582;28;20031;-64
2023/03/09 08:33:11;;;;;;;23.42;11.02;;;4.70;97.40;;;;;;5073740;28;20044;-64
2023/03/09 08:35:37;;;;;;;19.58;11.00;;;4.80;97.20;;;;;;5074525;28;20032;-64
2023/03/09 08:38:03;;;;;;;19.75;11.05;;;4.80;97.00;;;;;;5072679;28;20570;-64
2023/03/09 08:40:29;;;;;;;19.95;10.52;;;4.80;97.30;;;;;;5071441;28;20040;-64
2023/03/09 08:42:55;;;;;;;18.70;10.77;;;4.90;97.10;;;;;;5068900;28;20051;-64
2023/03/09 08:45:20;;;;;;;18.65;11.25;;;4.80;96.80;;;;;;5074075;28;20060;-64
2023/03/09 08:47:47;;;;;;;19.13;10.57;;;4.80;96.50;;;;;;5075844;28;20031;-64
2023/03/09 08:50:13;;;;;;;16.15;9.82;;;4.60;96.30;;;;;;5077795;28;20247;-64
2023/03/09 08:52:40;;;;;;;18.60;9.90;;;4.60;96.10;;;;;;5077999;28;20028;-64
2023/03/09 08:55:08;;;;;;;18.02;10.45;;;4.60;95.90;;;;;;5072163;28;20032;-64
2023/03/09 08:57:34;;;;;;;16.85;10.02;;;4.60;96.10;;;;;;5074650;28;20710;-64
2023/03/09 09:00:00;;;;;;;18.90;9.38;;;4.50;96.20;;;;;;5079801;28;20119;-65
2023/03/09 09:02:26;;;;;;;20.27;10.30;;;4.40;96.30;;;;;;5075616;28;20051;-65
2023/03/09 09:04:52;;;;;;;16.30;9.52;;;4.50;96.70;;;;;;5082621;28;20036;-65
2023/03/09 09:07:20;;;;;;;14.05;9.07;;;4.60;96.50;;;;;;5081561;28;20031;-65
2023/03/09 09:09:46;;;;;;;18.40;9.82;;;4.60;95.90;;;;;;5079266;28;20041;-65
2023/03/09 09:12:12;;;;;;;18.17;9.63;;;4.60;96.10;;;;;;5075526;28;20047;-64
2023/03/09 09:14:38;;;;;;;15.45;9.63;;;4.60;96.30;;;;;;5085364;28;20024;-65
2023/03/09 09:17:08;;;;;;;17.20;9.32;;;4.60;96.50;;;;;;5077374;28;20032;-64
2023/03/09 09:19:38;;;;;;;18.52;9.73;;;4.70;96.80;;;;;;5084917;28;20773;-65
2023/03/09 09:22:04;;;;;;;15.55;9.52;;;4.70;96.80;;;;;;5075951;28;20059;-64
2023/03/09 09:24:32;;;;;;;14.95;9.07;;;4.70;96.80;;;;;;5084724;28;20040;-65
2023/03/09 09:26:59;;;;;;;15.70;10.35;;;4.70;96.90;;;;;;5075174;28;20042;-64
2023/03/09 09:29:26;;;;;;;20.67;9.77;;;4.70;96.70;;;;;;5081985;28;20828;-65
2023/03/09 09:31:52;;;;;;;16.98;9.55;;;4.80;95.80;;;;;;5079752;28;20027;-65
2023/03/09 09:34:21;;;;;;;18.88;9.60;;;4.80;96.10;;;;;;5079794;28;20035;-62
2023/03/09 09:36:47;;;;;;;15.00;9.23;;;4.80;96.30;;;;;;5071276;28;20392;-64
2023/03/09 09:39:13;;;;;;;16.33;10.32;;;4.90;95.90;;;;;;5081835;28;20038;-64
2023/03/09 09:41:44;;;;;;;15.65;9.48;;;4.90;95.80;;;;;;5071906;28;20040;-65
2023/03/09 09:44:34;;;;;;;17.90;10.05;;;4.90;95.50;;;;;;5076176;28;20039;-65
2023/03/09 09:47:03;;;;;;;20.17;11.13;;;4.90;95.00;;;;;;5075522;28;20238;-64
2023/03/09 09:49:34;;;;;;;18.90;10.60;;;4.90;95.20;;;;;;5080993;28;20067;-64
2023/03/09 09:52:35;;;;;;;16.95;9.85;;;4.90;96.10;;;;;;5077026;28;20032;-64
2023/03/09 09:55:14;;;;;;;18.02;10.38;;;4.80;95.70;;;;;;5066397;28;20427;-64
2023/03/09 09:57:56;;;;;;;19.08;10.95;;;4.80;96.00;;;;;;5074437;28;20039;-64
2023/03/09 10:00:23;;;;;;;21.17;10.55;;;4.70;96.10;;;;;;5081619;28;20028;-64
2023/03/09 10:03:21;;;;;;;17.33;10.27;;;4.80;96.00;;;;;;5084333;28;20039;-65
2023/03/09 10:06:05;;;;;;;17.80;10.77;;;4.80;95.70;;;;;;5075429;28;20040;-64
2023/03/09 10:08:35;;;;;;;16.77;9.55;;;4.90;95.50;;;;;;5075741;28;20083;-64
2023/03/09 10:11:35;;;;;;;17.65;10.70;;;4.90;95.60;;;;;;5075509;28;20033;-63
2023/03/09 10:14:12;;;;;;;17.60;11.23;;;4.90;95.40;;;;;;5079969;28;20028;-64
2023/03/09 10:16:43;;;;;;;19.88;10.73;;;4.80;95.20;;;;;;5087702;28;20047;-64
2023/03/09 10:19:17;;;;;;;19.80;11.32;;;4.80;95.40;;;;;;5081961;28;20066;-64
2023/03/09 10:22:16;;;;;;;16.77;10.60;;;4.80;95.40;;;;;;5080251;28;20040;-64
2023/03/09 10:24:43;;;;;;;19.80;11.50;;;4.90;95.50;;;;;;5089064;28;20032;-64
2023/03/09 10:27:36;;;;;;;15.75;10.93;;;4.90;95.40;;;;;;5079686;28;20036;-64
2023/03/09 10:30:11;;;;;;;19.55;10.77;;;4.90;95.40;;;;;;5084150;28;20117;-64
2023/03/09 10:33:00;;;;;;;20.07;10.43;;;4.90;95.50;;;;;;5077298;28;20023;-62
2023/03/09 10:35:34;;;;;;;18.20;11.07;;;4.90;95.40;;;;;;5070617;28;20880;-64
2023/03/09 10:38:00;;;;;;;20.10;11.20;;;4.90;95.50;;;;;;5075362;28;20063;-64
2023/03/09 10:40:35;;;;;;;22.48;12.10;;;4.90;95.10;;;;;;5077644;28;20059;-64
2023/03/09 10:43:01;;;;;;;21.15;11.73;;;5.00;95.20;;;;;;5073493;28;20031;-64
2023/03/09 10:45:32;;;;;;;21.48;12.52;;;5.00;95.20;;;;;;5079801;28;20031;-65
2023/03/09 10:48:09;;;;;;;18.85;11.65;;;5.10;95.20;;;;;;5081974;28;20028;-64
2023/03/09 10:50:53;;;;;;;20.77;11.73;;;5.10;95.10;;;;;;5078038;28;20028;-64
2023/03/09 10:53:33;;;;;;;19.98;12.60;;;5.10;94.80;;;;;;5083546;28;20845;-64
2023/03/09 10:56:20;;;;;;;22.67;12.52;;;5.10;95.30;;;;;;5080852;28;20034;-64
2023/03/09 10:59:09;;;;;;;21.08;13.00;;;5.10;94.80;;;;;;5075307;28;20702;-64
2023/03/09 11:01:37;;;;;;;19.98;12.50;;;5.10;94.60;;;;;;5084080;28;20040;-64
2023/03/09 11:04:23;;;;;;;23.25;13.52;;;5.10;94.60;;;;;;5079796;28;20040;-64
2023/03/09 11:06:53;;;;;;;23.00;12.50;;;5.20;94.70;;;;;;5082521;28;20725;-64
2023/03/09 11:09:42;;;;;;;24.05;13.90;;;5.20;94.30;;;;;;5077776;28;20080;-64
2023/03/09 11:12:17;;;;;;;22.80;12.93;;;5.10;94.00;;;;;;5063750;28;20054;-64
2023/03/09 11:14:51;;;;;;;22.20;13.47;;;5.20;94.20;;;;;;5079037;28;20067;-64
2023/03/09 11:17:32;;;;;;;20.95;13.27;;;5.20;94.60;;;;;;5072829;28;20035;-64
2023/03/09 11:20:12;;;;;;;22.77;13.60;;;5.10;94.50;;;;;;5071030;28;20114;-65
2023/03/09 11:22:46;;;;;;;22.17;12.45;;;4.90;94.70;;;;;;5074178;28;20055;-64
2023/03/09 11:25:30;;;;;;;22.90;13.20;;;4.90;95.10;;;;;;5076463;28;20117;-64
2023/03/09 11:28:03;;;;;;;23.25;13.07;;;4.90;95.30;;;;;;5073898;28;20036;-64
2023/03/09 11:30:29;;;;;;;22.58;13.57;;;4.90;95.30;;;;;;5076521;28;20109;-65
2023/03/09 11:32:55;;;;;;;22.98;14.25;;;5.00;95.20;;;;;;5074900;28;20446;-64
2023/03/09 11:35:23;;;;;;;26.08;14.18;;;5.00;94.90;;;;;;5080235;28;20025;-63
2023/03/09 11:38:02;;;;;;;20.65;13.15;;;4.90;95.00;;;;;;5073279;28;20024;-64
2023/03/09 11:40:29;;;;;;;23.05;13.68;;;4.90;95.30;;;;;;5069768;28;20205;-64
2023/03/09 11:43:00;;;;;;;25.25;13.15;;;5.00;95.00;;;;;;5078807;28;20122;-64
2023/03/09 11:45:34;;;;;;;22.48;12.90;;;4.90;94.70;;;;;;5073997;28;20095;-63
2023/03/09 11:48:12;;;;;;;23.58;13.50;;;5.00;94.80;;;;;;5074985;28;20040;-63
2023/03/09 11:50:50;;;;;;;21.35;13.48;;;4.90;95.00;;;;;;5069624;28;20028;-63
2023/03/09 11:53:34;;;;;;;22.33;13.45;;;5.00;95.10;;;;;;5069164;28;20522;-64
2023/03/09 11:56:32;;;;;;;25.92;14.35;;;5.00;95.00;;;;;;5072470;28;20024;-63
2023/03/09 11:59:14;;;;;;;26.40;13.90;;;5.00;95.00;;;;;;5085423;28;20042;-63
2023/03/09 12:02:20;;;;;;;23.90;14.25;;;5.10;95.00;;;;;;5076511;28;20035;-63
2023/03/09 12:04:48;;;;;;;23.80;12.90;;;5.10;94.80;;;;;;5070659;28;20051;-64
2023/03/09 12:07:37;;;;;;;23.83;14.02;;;5.20;95.00;;;;;;5077248;28;20032;-63
2023/03/09 12:10:16;;;;;;;25.88;14.65;;;5.30;95.20;;;;;;5083029;28;20035;-64
2023/03/09 12:12:53;;;;;;;24.80;14.60;;;5.30;95.00;;;;;;5073815;28;20027;-63
2023/03/09 12:15:33;;;;;;;23.13;13.32;;;5.30;95.00;;;;;;5078847;28;20449;-63
2023/03/09 12:18:02;;;;;;;24.90;12.82;;;5.30;94.60;;;;;;5079036;28;20128;-63
2023/03/09 12:20:48;;;;;;;22.15;13.50;;;5.20;94.80;;;;;;5072794;28;20032;-63
2023/03/09 12:23:35;;;;;;;24.42;12.75;;;5.30;94.80;;;;;;5073141;28;20040;-63
2023/03/09 12:26:20;;;;;;;25.88;14.25;;;5.30;94.80;;;;;;5073708;28;20454;-62
2023/03/09 12:29:18;;;;;;;23.52;12.77;;;5.40;95.00;;;;;;5070314;28;20080;-62
2023/03/09 12:31:45;;;;;;;24.92;13.93;;;5.40;95.10;;;;;;5072676;28;20036;-63
2023/03/09 12:34:10;;;;;;;23.30;12.57;;;5.40;94.80;;;;;;5077433;28;20032;-63
2023/03/09 12:36:41;;;;;;;20.83;12.43;;;5.30;94.70;;;;;;5077168;28;20085;-63
2023/03/09 12:39:23;;;;;;;20.13;11.57;;;5.30;94.80;;;;;;5079466;28;20035;-63
2023/03/09 12:41:57;;;;;;;22.65;12.70;;;5.30;95.10;;;;;;5075702;28;20403;-64
2023/03/09 12:44:47;;;;;;;23.35;13.25;;;5.30;95.20;;;;;;5073399;28;20036;-63
2023/03/09 12:47:40;;;;;;;25.05;13.85;;;5.40;95.40;;;;;;5074301;28;20809;-63
2023/03/09 12:50:24;;;;;;;26.10;14.02;;;5.40;95.20;;;;;;5065118;28;20051;-64
2023/03/09 12:53:14;;;;;;;22.33;13.00;;;5.30;95.10;;;;;;5077191;28;20028;-63
2023/03/09 12:55:39;;;;;;;22.13;12.90;;;5.30;95.50;;;;;;5076717;28;20530;-63